Time;durP1;ratioP1;P1;durP2;ratioP2;P2;SDS_P1;SDS_P2;PMS_P1;PMS_P2;Temp;Humidity;BMP_temperature;BMP_pressure;BME280_temperature;BME280_humidity;BME280_pressure;Samples;Min_cycle;Max_cycle;Signal;HPM_P1;HPM_P2
2023/03/21 00:00:30;;;;;;;19.23;11.32;;;;;;;6.98;58.89;101503.03;5056949;28;20180;-72
2023/03/21 00:02:56;;;;;;;22.10;12.57;;;;;;;6.71;59.71;101497.34;5066109;28;20036;-70
2023/03/21 00:05:22;;;;;;;20.48;11.57;;;;;;;6.86;59.36;101494.53;5070662;28;20036;-71
2023/03/21 00:07:47;;;;;;;21.10;11.57;;;;;;;6.86;59.12;101497.16;5068873;28;20039;-71
2023/03/21 00:10:13;;;;;;;20.17;11.60;;;;;;;6.70;59.89;101493.03;5056067;28;20551;-70
2023/03/21 00:12:38;;;;;;;20.85;11.45;;;;;;;6.96;59.04;101495.25;5054917;28;20122;-68
2023/03/21 00:15:08;;;;;;;21.80;12.05;;;;;;;7.01;58.78;101498.63;5056634;28;20147;-71
2023/03/21 00:17:35;;;;;;;22.42;11.63;;;;;;;6.99;58.96;101489.16;5053842;28;20437;-73
2023/03/21 00:20:05;;;;;;;19.92;11.63;;;;;;;6.91;59.29;101484.94;5056082;28;20046;-71
2023/03/21 00:22:33;;;;;;;20.33;12.00;;;;;;;6.83;59.50;101486.78;5054472;28;20032;-70
2023/03/21 00:24:59;;;;;;;28.15;13.13;;;;;;;6.28;60.93;101480.59;5038256;28;20036;-71
2023/03/21 00:27:25;;;;;;;22.63;12.57;;;;;;;6.80;59.91;101486.84;5052964;28;20064;-71
2023/03/21 00:29:53;;;;;;;22.17;12.15;;;;;;;6.71;59.91;101484.38;5054348;28;20071;-70
2023/03/21 00:32:21;;;;;;;20.80;11.98;;;;;;;6.63;60.22;101481.00;5053716;28;20091;-71
2023/03/21 00:34:47;;;;;;;24.33;12.48;;;;;;;6.65;60.13;101474.91;5054516;28;20094;-70
2023/03/21 00:37:17;;;;;;;20.83;11.70;;;;;;;6.94;59.39;101472.78;5038205;28;20029;-71
2023/03/21 00:39:47;;;;;;;21.75;11.18;;;;;;;7.15;58.90;101463.78;5044166;28;20125;-70
2023/03/21 00:42:16;;;;;;;22.08;11.82;;;;;;;6.98;59.39;101458.84;5042848;28;20028;-70
2023/03/21 00:44:43;;;;;;;21.27;11.05;;;;;;;6.49;60.23;101461.28;5045486;28;20036;-71
2023/03/21 00:47:11;;;;;;;20.73;12.10;;;;;;;6.86;59.51;101468.56;5040283;28;20911;-69
2023/03/21 00:49:37;;;;;;;23.73;12.65;;;;;;;6.89;59.80;101463.31;5052490;28;20042;-70
2023/03/21 00:52:05;;;;;;;22.83;12.23;;;;;;;7.07;59.06;101458.72;5055556;28;20128;-68
2023/03/21 00:54:35;;;;;;;20.90;10.35;;;;;;;7.17;58.88;101454.22;5053726;28;20481;-69
2023/03/21 00:57:01;;;;;;;21.27;11.02;;;;;;;7.21;58.61;101458.47;5045915;28;20550;-69
2023/03/21 00:59:29;;;;;;;20.33;10.85;;;;;;;7.22;58.74;101452.38;5052854;28;20126;-70
2023/03/21 01:01:54;;;;;;;21.85;11.90;;;;;;;6.73;59.78;101456.63;5055252;28;20032;-70
2023/03/21 01:04:25;;;;;;;20.80;11.30;;;;;;;6.51;60.32;101448.28;5037377;28;20516;-69
2023/03/21 01:06:52;;;;;;;19.17;10.85;;;;;;;6.83;59.85;101449.53;5039301;28;20115;-69
2023/03/21 01:09:21;;;;;;;19.63;10.93;;;;;;;7.14;58.80;101452.53;5051621;28;20060;-69
2023/03/21 01:11:48;;;;;;;23.02;11.63;;;;;;;6.53;60.33;101443.03;5053024;28;20039;-69
2023/03/21 01:14:16;;;;;;;21.52;10.25;;;;;;;6.82;60.21;101440.91;5053629;28;20393;-70
2023/03/21 01:16:42;;;;;;;20.63;11.48;;;;;;;6.88;59.69;101434.72;5054669;28;20036;-68
2023/03/21 01:19:10;;;;;;;18.90;11.05;;;;;;;6.20;61.89;101435.66;5054272;28;20114;-70
2023/03/21 01:21:36;;;;;;;22.98;11.38;;;;;;;6.87;59.93;101428.69;5052858;28;20069;-69
2023/03/21 01:24:01;;;;;;;21.45;11.65;;;;;;;6.99;59.34;101429.38;5043066;28;20060;-70
2023/03/21 01:26:27;;;;;;;19.25;10.52;;;;;;;7.07;59.13;101430.13;5052213;28;20078;-69
2023/03/21 01:28:53;;;;;;;19.13;12.00;;;;;;;7.06;58.97;101425.78;5054230;28;20051;-70
2023/03/21 01:31:19;;;;;;;19.88;11.20;;;;;;;6.53;60.31;101423.16;5051764;28;20067;-70
2023/03/21 01:33:45;;;;;;;22.05;12.07;;;;;;;6.41;60.84;101418.09;5053820;28;20357;-70
2023/03/21 01:36:16;;;;;;;20.08;11.65;;;;;;;6.36;61.38;101422.53;5054988;28;20031;-70
2023/03/21 01:38:42;;;;;;;22.67;12.23;;;;;;;6.34;61.60;101419.09;5043523;28;20052;-69
2023/03/21 01:41:28;;;;;;;22.30;11.82;;;;;;;6.89;59.73;101421.72;5039605;28;20109;-70
2023/03/21 01:43:53;;;;;;;20.05;11.68;;;;;;;6.52;61.22;101420.56;5053146;28;20044;-70
2023/03/21 01:46:25;;;;;;;23.02;11.85;;;;;;;6.79;60.37;101417.53;5038865;28;20558;-70
2023/03/21 01:49:12;;;;;;;22.10;12.32;;;;;;;6.96;60.09;101419.03;5041178;28;20135;-70
2023/03/21 01:51:44;;;;;;;23.77;12.15;;;;;;;6.75;60.23;101413.28;5037606;28;20142;-70
2023/03/21 01:54:15;;;;;;;21.75;11.00;;;;;;;6.81;60.21;101405.38;5036679;28;20050;-71
2023/03/21 01:56:45;;;;;;;23.45;12.57;;;;;;;6.26;62.19;101408.75;5054641;28;20111;-70
2023/03/21 01:59:20;;;;;;;23.52;11.95;;;;;;;6.50;61.24;101408.44;5052571;28;20043;-70
2023/03/21 02:02:08;;;;;;;;;;;;;;;6.34;61.76;101406.94;5037688;28;20457;-69
2023/03/21 02:04:39;;;;;;;25.42;11.48;;;;;;;6.92;60.18;101405.22;5051338;28;20308;-70
2023/03/21 02:07:24;;;;;;;21.70;11.07;;;;;;;6.85;59.81;101401.00;5025602;28;20052;-71
2023/03/21 02:09:54;;;;;;;21.85;10.98;;;;;;;6.78;60.45;101397.66;5052596;28;20509;-71
2023/03/21 02:12:22;;;;;;;20.17;10.48;;;;;;;6.94;60.04;101397.41;5042682;28;20040;-71
2023/03/21 02:14:50;;;;;;;22.50;11.38;;;;;;;6.93;59.66;101393.06;5038294;28;20035;-69
2023/03/21 02:17:57;;;;;;;21.70;12.25;;;;;;;6.81;60.29;101394.16;5035010;28;20093;-69
2023/03/21 02:20:51;;;;;;;;;;;;;;;6.82;60.37;101394.13;5038493;28;20479;-69
2023/03/21 02:23:31;;;;;;;21.27;11.93;;;;;;;6.79;60.32;101386.38;5040051;28;19924;-68
2023/03/21 02:26:10;;;;;;;21.67;11.20;;;;;;;6.84;60.57;101387.16;5043013;28;20043;-68
2023/03/21 02:28:45;;;;;;;19.10;10.57;;;;;;;6.82;60.39;101388.94;5024416;28;20036;-68
2023/03/21 02:31:35;;;;;;;26.33;11.90;;;;;;;6.83;60.21;101382.84;5036204;28;20059;-69
2023/03/21 02:34:18;;;;;;;23.20;11.80;;;;;;;6.85;60.38;101382.81;5052302;28;20043;-69
2023/03/21 02:36:50;;;;;;;22.48;11.85;;;;;;;6.73;60.36;101378.69;5041016;28;20066;-69
2023/03/21 02:39:25;;;;;;;19.90;10.60;;;;;;;6.64;61.00;101384.00;5039401;28;20036;-68
2023/03/21 02:42:12;;;;;;;17.55;9.73;;;;;;;6.92;60.56;101379.25;5038556;28;20943;-69
2023/03/21 02:44:45;;;;;;;22.25;11.80;;;;;;;7.12;59.56;101376.31;5036922;28;20046;-68
2023/03/21 02:47:13;;;;;;;18.73;10.52;;;;;;;7.03;59.71;101366.91;5053589;28;20028;-69
2023/03/21 02:49:49;;;;;;;22.65;11.68;;;;;;;7.12;59.76;101368.50;5037306;28;20155;-67
2023/03/21 02:52:21;;;;;;;21.02;10.35;;;;;;;6.70;61.14;101374.38;5036253;28;20119;-68
2023/03/21 02:54:48;;;;;;;20.42;10.60;;;;;;;6.78;60.28;101365.63;5042741;28;20123;-68
2023/03/21 02:57:20;;;;;;;23.00;12.15;;;;;;;6.24;62.32;101366.41;5049464;28;20027;-68
2023/03/21 02:59:49;;;;;;;22.73;11.13;;;;;;;6.94;60.19;101371.44;5036716;28;20036;-68
2023/03/21 03:02:21;;;;;;;22.52;11.55;;;;;;;6.61;61.42;101374.53;5038366;28;20032;-67
2023/03/21 03:04:47;;;;;;;22.55;12.05;;;;;;;6.96;60.13;101369.66;5040699;28;20032;-68
2023/03/21 03:07:13;;;;;;;20.73;11.40;;;;;;;7.12;59.64;101366.75;5053906;28;20559;-71
2023/03/21 03:09:50;;;;;;;20.52;10.20;;;;;;;7.05;60.18;101364.31;5036062;28;20056;-71
2023/03/21 03:12:24;;;;;;;21.20;12.07;;;;;;;6.85;60.58;101367.25;5052648;28;20028;-70
2023/03/21 03:15:20;;;;;;;20.02;10.07;;;;;;;7.08;60.08;101369.44;5043594;28;20048;-70
2023/03/21 03:17:54;;;;;;;20.48;9.20;;;;;;;6.87;60.77;101371.53;5035225;28;20075;-70
2023/03/21 03:20:46;;;;;;;18.02;10.60;;;;;;;6.39;62.38;101368.78;5051774;28;20043;-69
2023/03/21 03:23:34;;;;;;;20.42;9.27;;;;;;;7.00;60.05;101366.09;5038954;28;20058;-69
2023/03/21 03:26:07;;;;;;;20.52;9.43;;;;;;;6.97;60.29;101364.41;5055619;28;20032;-69
2023/03/21 03:28:38;;;;;;;17.10;9.80;;;;;;;6.95;60.51;101362.72;5023117;28;20032;-69
2023/03/21 03:31:13;;;;;;;19.25;10.50;;;;;;;7.20;59.59;101357.94;5039694;28;20564;-69
2023/03/21 03:33:50;;;;;;;20.05;8.93;;;;;;;7.43;59.27;101361.00;5046790;28;20044;-68
2023/03/21 03:36:17;;;;;;;18.67;10.05;;;;;;;7.16;59.54;101359.78;5042151;28;20085;-69
2023/03/21 03:38:47;;;;;;;19.00;10.15;;;;;;;7.40;58.93;101349.78;5038419;28;20044;-71
2023/03/21 03:41:21;;;;;;;21.20;10.10;;;;;;;6.61;61.51;101358.94;5040847;28;20032;-71
2023/03/21 03:43:56;;;;;;;19.60;9.90;;;;;;;7.02;60.10;101351.34;5054303;28;20067;-72
2023/03/21 03:46:37;;;;;;;21.08;10.43;;;;;;;6.83;60.63;101351.66;5037345;28;20613;-71
2023/03/21 03:49:14;;;;;;;17.23;8.65;;;;;;;7.22;59.71;101346.66;5046622;28;20041;-69
2023/03/21 03:51:51;;;;;;;21.67;10.15;;;;;;;7.08;60.30;101353.84;5044382;28;20031;-69
2023/03/21 03:54:46;;;;;;;19.83;10.20;;;;;;;7.38;59.63;101351.56;5045309;28;20040;-69
2023/03/21 03:57:12;;;;;;;19.50;10.63;;;;;;;7.00;60.41;101348.78;5056330;28;20033;-70
2023/03/21 03:59:42;;;;;;;20.20;9.32;;;;;;;7.08;60.13;101346.03;5043283;28;20194;-72
2023/03/21 04:02:26;;;;;;;21.42;9.60;;;;;;;7.31;59.72;101341.28;5053756;28;20605;-66
2023/03/21 04:04:53;;;;;;;18.60;9.55;;;;;;;7.31;59.59;101336.09;5044602;28;20148;-71
2023/03/21 04:07:21;;;;;;;21.10;10.15;;;;;;;6.86;61.22;101336.03;5058093;28;20180;-69
2023/03/21 04:09:48;;;;;;;22.38;9.98;;;;;;;7.20;60.26;101335.44;5045100;28;20109;-69
2023/03/21 04:12:17;;;;;;;23.58;10.20;;;;;;;7.12;60.28;101334.72;5043568;28;20031;-69
2023/03/21 04:14:56;;;;;;;23.35;10.77;;;;;;;7.24;60.37;101334.47;5045523;28;20029;-69
2023/03/21 04:17:22;;;;;;;21.65;11.27;;;;;;;7.09;60.95;101339.97;5039906;28;20048;-69
2023/03/21 04:19:50;;;;;;;26.27;10.43;;;;;;;7.36;59.64;101338.59;5045412;28;20127;-70
2023/03/21 04:22:17;;;;;;;21.60;10.35;;;;;;;7.32;59.69;101330.00;5055645;28;20060;-71
2023/03/21 04:24:43;;;;;;;23.92;11.32;;;;;;;7.24;60.14;101333.63;5039461;28;20118;-70
2023/03/21 04:27:09;;;;;;;25.48;9.80;;;;;;;7.33;59.96;101328.22;5057548;28;20650;-71
2023/03/21 04:29:38;;;;;;;31.15;11.75;;;;;;;7.41;59.87;101325.50;5042438;28;20737;-69
2023/03/21 04:32:32;;;;;;;28.52;10.98;;;;;;;7.10;60.56;101323.47;5036057;28;20473;-70
2023/03/21 04:35:09;;;;;;;27.92;11.43;;;;;;;7.37;60.18;101323.84;5045037;28;20907;-70
2023/03/21 04:37:35;;;;;;;30.33;11.00;;;;;;;7.34;59.91;101316.97;5038556;28;20045;-71
2023/03/21 04:40:06;;;;;;;25.90;11.38;;;;;;;7.31;60.25;101323.09;5043423;28;20082;-70
2023/03/21 04:42:33;;;;;;;32.05;14.05;;;;;;;6.58;62.56;101316.59;5022377;28;20123;-71
2023/03/21 04:45:00;;;;;;;39.53;13.07;;;;;;;7.15;60.71;101313.84;5055719;28;20165;-70
2023/03/21 04:47:25;;;;;;;25.40;10.50;;;;;;;6.88;61.53;101316.06;5056503;28;20711;-70
2023/03/21 04:49:53;;;;;;;34.22;12.88;;;;;;;6.98;61.72;101310.72;5050987;28;20584;-69
2023/03/21 04:52:19;;;;;;;26.33;11.60;;;;;;;7.11;61.32;101307.00;5049687;28;20047;-71
2023/03/21 04:54:45;;;;;;;29.23;11.57;;;;;;;7.19;60.96;101299.06;5040743;28;20349;-70
2023/03/21 04:57:11;;;;;;;24.80;10.02;;;;;;;7.32;60.31;101300.53;5056750;28;20032;-70
2023/03/21 04:59:37;;;;;;;26.45;10.65;;;;;;;7.19;61.04;101297.31;5024318;28;20036;-70
2023/03/21 05:02:02;;;;;;;29.42;11.00;;;;;;;6.70;62.46;101295.59;5046650;28;20040;-70
2023/03/21 05:04:29;;;;;;;27.98;10.30;;;;;;;6.84;62.30;101293.63;5042452;28;20029;-70
2023/03/21 05:06:56;;;;;;;22.98;9.88;;;;;;;6.60;63.07;101300.09;5041024;28;20036;-70
2023/03/21 05:09:22;;;;;;;26.30;10.13;;;;;;;6.74;62.39;101292.06;5044488;28;20048;-71
2023/03/21 05:11:48;;;;;;;28.90;10.80;;;;;;;6.96;62.07;101291.69;5038325;28;20051;-75
2023/03/21 05:14:17;;;;;;;22.80;9.52;;;;;;;6.86;62.14;101294.47;5041152;28;20045;-74
2023/03/21 05:16:47;;;;;;;27.52;11.25;;;;;;;7.20;61.00;101290.34;5054336;28;20032;-70
2023/03/21 05:19:16;;;;;;;28.02;11.38;;;;;;;7.12;61.00;101298.31;5045612;28;20100;-71
2023/03/21 05:21:42;;;;;;;18.25;8.75;;;;;;;7.31;60.55;101293.59;5038685;28;20032;-71
2023/03/21 05:24:18;;;;;;;25.08;9.65;;;;;;;6.95;61.46;101289.97;5039626;28;20032;-72
2023/03/21 05:26:49;;;;;;;24.17;9.95;;;;;;;6.86;61.91;101286.66;5038793;28;20565;-71
2023/03/21 05:29:17;;;;;;;25.75;10.93;;;;;;;6.81;61.65;101298.88;5041095;28;20028;-72
2023/03/21 05:31:48;;;;;;;23.85;10.20;;;;;;;6.82;61.98;101295.41;5035057;28;20139;-70
2023/03/21 05:34:14;;;;;;;20.13;9.60;;;;;;;6.69;62.79;101293.91;5039570;28;20250;-72
2023/03/21 05:36:40;;;;;;;21.27;9.43;;;;;;;6.57;63.02;101294.09;5041956;28;20035;-73
2023/03/21 05:39:08;;;;;;;19.73;9.68;;;;;;;7.11;61.51;101288.81;5055775;28;20119;-76
2023/03/21 05:41:38;;;;;;;21.70;9.80;;;;;;;6.88;61.51;101291.81;5025283;28;20101;-74
2023/03/21 05:44:04;;;;;;;21.80;10.40;;;;;;;6.72;62.22;101290.38;5041406;28;20101;-73
2023/03/21 05:46:30;;;;;;;22.65;10.02;;;;;;;6.66;62.64;101288.72;5052414;28;20036;-73
2023/03/21 05:48:56;;;;;;;18.25;10.13;;;;;;;7.26;61.01;101285.91;5042883;28;20793;-73
2023/03/21 05:51:23;;;;;;;19.77;9.40;;;;;;;7.10;60.82;101284.47;5040395;28;20039;-72
2023/03/21 05:53:50;;;;;;;18.85;9.98;;;;;;;7.50;60.09;101286.31;5042292;28;20048;-72
2023/03/21 05:56:16;;;;;;;17.30;9.40;;;;;;;6.86;61.91;101281.47;5037763;28;20568;-73
2023/03/21 05:59:04;;;;;;;18.17;9.15;;;;;;;6.95;62.03;101277.81;5045943;28;20040;-73
2023/03/21 06:01:34;;;;;;;19.10;10.65;;;;;;;7.31;60.74;101284.09;5032471;28;20070;-72
2023/03/21 06:04:11;;;;;;;21.70;10.82;;;;;;;6.87;61.46;101280.56;5038684;28;20264;-72
2023/03/21 06:06:38;;;;;;;19.50;9.52;;;;;;;7.09;61.20;101281.03;5050401;28;20036;-72
2023/03/21 06:09:05;;;;;;;21.70;9.65;;;;;;;7.28;61.03;101283.28;5054607;28;20622;-70
2023/03/21 06:11:34;;;;;;;20.05;10.02;;;;;;;7.47;59.87;101283.78;5054298;28;20028;-74
2023/03/21 06:14:23;;;;;;;20.98;9.75;;;;;;;7.32;60.69;101285.78;5040919;28;20028;-73
2023/03/21 06:17:07;;;;;;;21.45;9.32;;;;;;;7.29;60.38;101285.84;5054667;28;20446;-73
2023/03/21 06:19:39;;;;;;;20.40;9.50;;;;;;;6.82;62.17;101279.81;5033962;28;20562;-68
2023/03/21 06:22:14;;;;;;;20.02;10.93;;;;;;;6.96;61.71;101282.16;5021979;28;20044;-69
2023/03/21 06:24:41;;;;;;;20.10;9.43;;;;;;;7.57;60.03;101285.31;5032345;28;20039;-70
2023/03/21 06:27:06;;;;;;;21.60;10.15;;;;;;;7.21;61.10;101281.69;5039876;28;20028;-70
2023/03/21 06:29:46;;;;;;;19.67;10.05;;;;;;;7.16;61.36;101279.19;5041401;28;20024;-68
2023/03/21 06:32:12;;;;;;;19.13;9.90;;;;;;;7.19;61.56;101279.09;5040840;28;20163;-69
2023/03/21 06:34:38;;;;;;;22.98;9.43;;;;;;;7.66;60.02;101279.91;5035982;28;20027;-68
2023/03/21 06:37:04;;;;;;;18.73;9.05;;;;;;;7.21;61.41;101276.50;5035784;28;20055;-70
2023/03/21 06:39:32;;;;;;;18.48;9.07;;;;;;;7.28;61.16;101272.88;5035357;28;20024;-68
2023/03/21 06:41:58;;;;;;;20.15;9.80;;;;;;;6.76;62.39;101284.25;5040297;28;20043;-69
2023/03/21 06:44:24;;;;;;;21.08;10.00;;;;;;;7.45;61.10;101280.34;5041327;28;20035;-68
2023/03/21 06:46:57;;;;;;;19.02;8.73;;;;;;;7.33;60.81;101271.91;5040298;28;20036;-68
2023/03/21 06:49:25;;;;;;;18.23;8.93;;;;;;;6.72;62.65;101272.19;5044607;28;20039;-67
2023/03/21 06:51:51;;;;;;;21.90;9.20;;;;;;;6.82;62.27;101273.72;5041794;28;20032;-67
2023/03/21 06:54:19;;;;;;;18.55;8.25;;;;;;;7.52;60.27;101276.72;5043750;28;20040;-67
2023/03/21 06:57:00;;;;;;;23.42;9.88;;;;;;;7.35;60.82;101274.47;5050015;28;20498;-67
2023/03/21 06:59:30;;;;;;;23.23;9.55;;;;;;;7.49;60.36;101279.41;5040562;28;20044;-69
2023/03/21 07:02:02;;;;;;;;;;;;;;;7.25;61.24;101284.19;5050971;28;20495;-68
2023/03/21 07:04:29;;;;;;;19.33;9.65;;;;;;;7.70;59.91;101278.97;5046287;28;20616;-69
2023/03/21 07:06:56;;;;;;;17.30;9.10;;;;;;;7.49;60.50;101279.41;5053908;28;20036;-67
2023/03/21 07:09:23;;;;;;;18.33;8.90;;;;;;;7.02;61.62;101282.03;5054153;28;20813;-68
2023/03/21 07:11:52;;;;;;;24.98;10.55;;;;;;;7.62;60.18;101282.63;5048378;28;20420;-68
2023/03/21 07:14:20;;;;;;;20.13;10.02;;;;;;;6.98;61.66;101284.72;5050457;28;20788;-70
2023/03/21 07:16:46;;;;;;;23.17;9.38;;;;;;;6.83;61.96;101286.69;5046433;28;20028;-68
2023/03/21 07:19:12;;;;;;;15.27;8.52;;;;;;;7.59;59.96;101277.50;5049557;28;20047;-70
2023/03/21 07:21:38;;;;;;;18.95;8.88;;;;;;;7.45;59.96;101281.19;5047326;28;20029;-69
2023/03/21 07:24:04;;;;;;;22.13;8.95;;;;;;;6.91;61.86;101282.25;5063790;28;20089;-68
2023/03/21 07:26:29;;;;;;;14.10;7.35;;;;;;;7.05;61.75;101286.31;5064650;28;20659;-67
2023/03/21 07:28:57;;;;;;;17.85;8.88;;;;;;;7.06;61.64;101285.44;5049012;28;20040;-68
2023/03/21 07:31:25;;;;;;;20.30;9.52;;;;;;;7.33;60.57;101287.50;5051420;28;20579;-66
2023/03/21 07:33:51;;;;;;;18.63;9.13;;;;;;;7.32;60.82;101285.78;5047830;28;20051;-67
2023/03/21 07:36:17;;;;;;;19.30;8.88;;;;;;;7.56;60.02;101288.81;5065533;28;20032;-68
2023/03/21 07:38:45;;;;;;;17.52;8.52;;;;;;;6.84;62.05;101293.63;5047541;28;20043;-68
2023/03/21 07:41:11;;;;;;;17.42;8.50;;;;;;;7.66;59.84;101298.13;5065981;28;20020;-66
2023/03/21 07:43:37;;;;;;;16.70;8.13;;;;;;;7.15;61.34;101277.44;5052633;28;20028;-66
2023/03/21 07:46:08;;;;;;;20.20;8.63;;;;;;;6.67;62.61;101287.88;5055007;28;20104;-67
2023/03/21 07:48:34;;;;;;;20.30;9.70;;;;;;;7.40;60.53;101282.16;5047391;28;20175;-68
2023/03/21 07:51:01;;;;;;;23.83;9.65;;;;;;;7.60;60.17;101290.47;5062058;28;20028;-68
2023/03/21 07:53:27;;;;;;;19.45;9.75;;;;;;;7.60;59.78;101285.28;5051099;28;20098;-68
2023/03/21 07:55:55;;;;;;;16.92;8.52;;;;;;;7.87;58.84;101288.13;5062818;28;22565;-67
2023/03/21 07:58:22;;;;;;;17.30;9.55;;;;;;;6.97;61.91;101283.00;5062305;28;20067;-67
2023/03/21 08:00:48;;;;;;;17.98;9.43;;;;;;;6.84;62.52;101283.25;5059149;28;20641;-67
2023/03/21 08:03:13;;;;;;;22.98;10.43;;;;;;;6.98;61.73;101279.53;5062712;28;20040;-67
2023/03/21 08:05:39;;;;;;;15.95;8.93;;;;;;;7.00;61.73;101285.53;5062497;28;20040;-67
2023/03/21 08:08:05;;;;;;;18.83;9.77;;;;;;;7.80;59.56;101283.97;5063371;28;20511;-66
2023/03/21 08:10:31;;;;;;;19.45;9.30;;;;;;;7.70;59.46;101288.53;5066792;28;20024;-67
2023/03/21 08:12:57;;;;;;;18.80;9.85;;;;;;;7.32;61.17;101288.38;5057460;28;20833;-68
2023/03/21 08:15:23;;;;;;;17.00;10.27;;;;;;;7.54;60.16;101280.16;5063037;28;20028;-67
2023/03/21 08:17:48;;;;;;;21.52;10.68;;;;;;;7.26;60.94;101280.69;5059506;28;20044;-67
2023/03/21 08:20:17;;;;;;;22.80;10.95;;;;;;;7.57;60.18;101276.66;5061596;28;20038;-67
2023/03/21 08:22:43;;;;;;;22.05;9.60;;;;;;;7.49;60.37;101279.41;5059049;28;20032;-68
2023/03/21 08:25:12;;;;;;;18.98;10.38;;;;;;;7.08;61.80;101271.50;5061898;28;20139;-67
2023/03/21 08:27:42;;;;;;;17.88;9.85;;;;;;;7.92;59.65;101266.34;5060732;28;20044;-66
2023/03/21 08:30:13;;;;;;;18.27;10.07;;;;;;;7.18;61.23;101276.56;5062506;28;20055;-67
2023/03/21 08:32:39;;;;;;;19.70;10.77;;;;;;;7.31;61.20;101270.19;5059737;28;20048;-67
2023/03/21 08:35:10;;;;;;;19.35;11.02;;;;;;;7.10;61.54;101269.75;5059191;28;20203;-67
2023/03/21 08:37:37;;;;;;;15.85;7.97;;;;;;;7.88;60.27;101275.09;5060632;28;20048;-67
2023/03/21 08:40:10;;;;;;;20.83;10.02;;;;;;;7.21;61.68;101266.94;5062464;28;20105;-67
2023/03/21 08:42:36;;;;;;;17.80;9.77;;;;;;;7.69;60.81;101264.25;5058417;28;20105;-68
2023/03/21 08:45:03;;;;;;;17.40;9.43;;;;;;;7.81;60.09;101262.28;5059334;28;20115;-66
2023/03/21 08:47:32;;;;;;;17.17;9.63;;;;;;;7.80;60.31;101266.63;5059422;28;20072;-67
2023/03/21 08:49:58;;;;;;;15.57;9.25;;;;;;;7.72;60.57;101261.56;5048005;28;20036;-68
2023/03/21 08:52:24;;;;;;;15.55;7.90;;;;;;;7.42;61.17;101257.00;5060377;28;20036;-69
2023/03/21 08:54:50;;;;;;;16.15;8.90;;;;;;;7.73;60.94;101265.91;5057852;28;20044;-66
2023/03/21 08:57:16;;;;;;;13.98;6.95;;;;;;;8.05;59.89;101261.72;5058577;28;20107;-67
2023/03/21 08:59:41;;;;;;;11.75;6.90;;;;;;;8.02;60.35;101266.97;5058847;28;20035;-66
2023/03/21 09:02:07;;;;;;;12.55;7.57;;;;;;;7.77;60.49;101256.28;5058849;28;20035;-68
2023/03/21 09:04:32;;;;;;;12.00;6.78;;;;;;;8.06;60.19;101260.81;5058566;28;20025;-69
2023/03/21 09:07:00;;;;;;;11.73;7.10;;;;;;;8.28;59.13;101262.91;5051138;28;20047;-68
2023/03/21 09:09:27;;;;;;;10.00;6.47;;;;;;;7.21;61.63;101256.53;5060246;28;20513;-68
2023/03/21 09:11:54;;;;;;;9.65;5.43;;;;;;;7.42;61.17;101264.78;5061313;28;20046;-68
2023/03/21 09:14:19;;;;;;;8.80;5.45;;;;;;;7.29;61.36;101265.06;5060060;28;20085;-68
2023/03/21 09:16:44;;;;;;;12.23;5.75;;;;;;;8.03;59.70;101253.09;5059677;28;20044;-69
2023/03/21 09:19:10;;;;;;;8.73;5.10;;;;;;;7.74;60.39;101257.19;5057390;28;20032;-66
2023/03/21 09:21:37;;;;;;;9.30;5.78;;;;;;;6.99;62.26;101250.03;5056224;28;20028;-69
2023/03/21 09:24:05;;;;;;;8.73;5.47;;;;;;;7.53;60.70;101252.41;5045939;28;20044;-69
2023/03/21 09:26:31;;;;;;;9.43;5.05;;;;;;;7.39;61.18;101255.31;5057906;28;20050;-67
2023/03/21 09:28:57;;;;;;;9.93;5.32;;;;;;;8.31;59.29;101253.25;5053383;28;20052;-69
2023/03/21 09:31:23;;;;;;;7.60;5.43;;;;;;;8.01;59.18;101256.63;5059973;28;20151;-68
2023/03/21 09:33:50;;;;;;;8.98;5.10;;;;;;;7.66;60.67;101259.09;5040665;28;20542;-67
2023/03/21 09:36:19;;;;;;;6.75;4.25;;;;;;;7.65;60.89;101251.34;5057058;28;20691;-68
2023/03/21 09:38:46;;;;;;;8.32;4.63;;;;;;;7.49;61.45;101254.25;5058150;28;20058;-69
2023/03/21 09:41:50;;;;;;;7.55;4.72;;;;;;;8.07;59.75;101252.13;5059073;28;20127;-67
2023/03/21 09:44:28;;;;;;;7.95;5.10;;;;;;;7.73;59.96;101250.31;5055666;28;20636;-70
2023/03/21 09:47:01;;;;;;;7.50;4.05;;;;;;;7.78;60.35;101252.78;5056159;28;20043;-69
2023/03/21 09:49:34;;;;;;;7.95;4.15;;;;;;;7.84;59.95;101243.97;5055409;28;20117;-68
2023/03/21 09:52:04;;;;;;;8.65;4.40;;;;;;;8.00;59.78;101242.72;5067331;28;20123;-66
2023/03/21 09:54:38;;;;;;;6.75;3.92;;;;;;;7.98;59.67;101254.94;5043724;28;20093;-67
2023/03/21 09:57:18;;;;;;;8.07;3.95;;;;;;;7.99;60.03;101241.03;5070363;28;20099;-68
2023/03/21 09:59:57;;;;;;;6.60;3.95;;;;;;;7.46;61.14;101243.88;5065086;28;20028;-69
2023/03/21 10:02:34;;;;;;;7.10;3.58;;;;;;;7.80;60.44;101251.03;5057023;28;20212;-68
2023/03/21 10:05:18;;;;;;;5.93;3.50;;;;;;;7.46;61.23;101243.88;5056072;28;20066;-68
2023/03/21 10:08:03;;;;;;;5.93;3.70;;;;;;;7.63;60.91;101237.53;5044889;28;20044;-66
2023/03/21 10:10:40;;;;;;;5.38;3.33;;;;;;;8.02;60.49;101246.16;5056729;28;20038;-65
2023/03/21 10:13:15;;;;;;;6.47;3.50;;;;;;;7.81;60.84;101241.47;5045324;28;20122;-64
2023/03/21 10:15:41;;;;;;;5.25;3.58;;;;;;;8.63;59.02;101237.72;5054060;28;20062;-65
2023/03/21 10:18:25;;;;;;;6.88;3.80;;;;;;;7.73;60.35;101242.50;5045916;28;20521;-66
2023/03/21 10:20:56;;;;;;;5.22;3.28;;;;;;;8.42;59.09;101234.78;5052523;28;20036;-68
2023/03/21 10:23:28;;;;;;;5.72;2.25;;;;;;;7.14;61.75;101238.50;5055314;28;20044;-69
2023/03/21 10:26:03;;;;;;;6.90;2.83;;;;;;;7.23;61.95;101233.13;5054610;28;20151;-68
2023/03/21 10:28:40;;;;;;;4.00;3.00;;;;;;;7.78;60.84;101236.31;5044196;28;20052;-68
2023/03/21 10:31:15;;;;;;;5.40;2.67;;;;;;;7.80;60.69;101229.31;5055413;28;20112;-69
2023/03/21 10:33:51;;;;;;;3.88;2.63;;;;;;;8.00;60.28;101231.47;5054911;28;20067;-67
2023/03/21 10:36:24;;;;;;;4.85;2.00;;;;;;;8.06;59.93;101226.13;5056697;28;20071;-67
2023/03/21 10:38:58;;;;;;;5.22;1.95;;;;;;;7.58;60.94;101229.81;5054163;28;20071;-69
2023/03/21 10:41:24;;;;;;;;;;;;;;;7.68;60.87;101226.09;5057942;28;20051;-66
2023/03/21 10:44:10;;;;;;;3.67;1.85;;;;;;;8.11;59.76;101219.94;5056585;28;19916;-69
2023/03/21 10:46:50;;;;;;;5.80;3.13;;;;;;;7.73;60.58;101219.06;5053098;28;20083;-69
2023/03/21 10:49:18;;;;;;;3.97;2.30;;;;;;;7.22;61.64;101224.47;5052067;28;20051;-67
2023/03/21 10:51:56;;;;;;;4.20;2.55;;;;;;;7.27;61.95;101214.81;5055126;28;20032;-68
2023/03/21 10:54:31;;;;;;;4.20;2.22;;;;;;;7.23;61.44;101212.31;5018430;28;20040;-67
2023/03/21 10:57:12;;;;;;;;;;;;;;;7.62;61.30;101214.97;5056548;28;20034;-67
2023/03/21 10:59:46;;;;;;;5.40;2.92;;;;;;;7.17;61.56;101215.88;5052738;28;19927;-66
2023/03/21 11:02:24;;;;;;;2.58;1.80;;;;;;;7.66;60.44;101204.47;5046370;28;20123;-68
2023/03/21 11:04:52;;;;;;;3.75;2.70;;;;;;;7.80;60.50;101203.31;5058135;28;20048;-68
2023/03/21 11:07:23;;;;;;;5.60;2.92;;;;;;;8.40;58.69;101205.31;5055909;28;20032;-68
2023/03/21 11:10:00;;;;;;;3.60;2.95;;;;;;;7.79;60.47;101206.81;5055503;28;20039;-68
2023/03/21 11:12:33;;;;;;;4.32;2.90;;;;;;;7.19;61.03;101201.13;5043476;28;20090;-68
2023/03/21 11:15:38;;;;;;;4.20;3.13;;;;;;;7.49;61.09;101203.97;5055848;28;20492;-67
2023/03/21 11:18:41;;;;;;;4.40;3.28;;;;;;;7.23;61.47;101200.16;5051882;28;20040;-69
2023/03/21 11:21:10;;;;;;;4.60;3.47;;;;;;;7.36;61.00;101198.19;5037161;28;20221;-68
2023/03/21 11:23:42;;;;;;;6.38;3.80;;;;;;;7.40;61.32;101196.34;5045498;28;20183;-68
2023/03/21 11:26:25;;;;;;;8.05;4.32;;;;;;;7.72;60.37;101193.94;5057084;28;20513;-67
2023/03/21 11:28:59;;;;;;;8.43;4.88;;;;;;;7.49;60.58;101180.56;5048819;28;20073;-67
2023/03/21 11:31:38;;;;;;;6.00;3.38;;;;;;;7.58;60.57;101190.78;5056449;28;20043;-68
2023/03/21 11:34:30;;;;;;;8.43;4.43;;;;;;;7.78;59.92;101185.13;5043315;28;20111;-67
2023/03/21 11:37:02;;;;;;;5.22;3.80;;;;;;;7.50;60.20;101192.66;5058154;28;20036;-68
2023/03/21 11:39:38;;;;;;;9.18;4.95;;;;;;;7.51;60.46;101181.34;5054690;28;20036;-68
2023/03/21 11:42:27;;;;;;;6.75;4.07;;;;;;;7.30;60.54;101188.75;5047573;28;20039;-66